sensor_id;sensor_type;location;lat;lon;timestamp;temperature;humidity
74657;DHT22;63185;45.642;13.764;2024-01-06T00:01:39;14.60;82.60
74657;DHT22;63185;45.642;13.764;2024-01-06T00:04:04;14.60;82.80
74657;DHT22;63185;45.642;13.764;2024-01-06T00:06:30;14.60;82.70
74657;DHT22;63185;45.642;13.764;2024-01-06T00:08:56;14.60;83.10
74657;DHT22;63185;45.642;13.764;2024-01-06T00:11:22;14.60;82.90
74657;DHT22;63185;45.642;13.764;2024-01-06T00:13:48;14.60;82.60
74657;DHT22;63185;45.642;13.764;2024-01-06T00:16:17;14.60;82.70
74657;DHT22;63185;45.642;13.764;2024-01-06T00:18:44;14.70;82.60
74657;DHT22;63185;45.642;13.764;2024-01-06T00:21:10;14.70;82.30
74657;DHT22;63185;45.642;13.764;2024-01-06T00:23:35;14.70;82.60
74657;DHT22;63185;45.642;13.764;2024-01-06T00:26:01;14.80;82.70
74657;DHT22;63185;45.642;13.764;2024-01-06T00:28:28;14.80;82.70
74657;DHT22;63185;45.642;13.764;2024-01-06T00:30:53;14.90;82.40
74657;DHT22;63185;45.642;13.764;2024-01-06T00:33:19;14.90;82.10
74657;DHT22;63185;45.642;13.764;2024-01-06T00:35:44;14.90;82.30
74657;DHT22;63185;45.642;13.764;2024-01-06T00:38:10;14.90;82.10
74657;DHT22;63185;45.642;13.764;2024-01-06T00:40:36;15.00;81.70
74657;DHT22;63185;45.642;13.764;2024-01-06T00:43:02;15.10;81.60
74657;DHT22;63185;45.642;13.764;2024-01-06T00:45:28;15.20;80.90
74657;DHT22;63185;45.642;13.764;2024-01-06T00:47:54;15.20;81.30
74657;DHT22;63185;45.642;13.764;2024-01-06T00:50:19;15.30;81.10
74657;DHT22;63185;45.642;13.764;2024-01-06T00:52:45;15.30;81.20
74657;DHT22;63185;45.642;13.764;2024-01-06T00:55:11;15.30;81.20
74657;DHT22;63185;45.642;13.764;2024-01-06T00:57:36;15.20;81.50
74657;DHT22;63185;45.642;13.764;2024-01-06T01:00:04;15.30;81.40
74657;DHT22;63185;45.642;13.764;2024-01-06T01:02:31;15.30;81.10
74657;DHT22;63185;45.642;13.764;2024-01-06T01:04:56;15.30;81.00
74657;DHT22;63185;45.642;13.764;2024-01-06T01:07:23;15.40;80.80
74657;DHT22;63185;45.642;13.764;2024-01-06T01:09:49;15.30;81.10
74657;DHT22;63185;45.642;13.764;2024-01-06T01:12:14;15.30;81.50
74657;DHT22;63185;45.642;13.764;2024-01-06T01:14:40;15.30;81.30
74657;DHT22;63185;45.642;13.764;2024-01-06T01:17:06;15.40;81.20
74657;DHT22;63185;45.642;13.764;2024-01-06T01:19:31;15.30;81.70
74657;DHT22;63185;45.642;13.764;2024-01-06T01:21:57;15.40;81.60
74657;DHT22;63185;45.642;13.764;2024-01-06T01:24:23;15.30;81.90
74657;DHT22;63185;45.642;13.764;2024-01-06T01:26:49;15.30;82.10
74657;DHT22;63185;45.642;13.764;2024-01-06T01:29:15;15.30;81.90
74657;DHT22;63185;45.642;13.764;2024-01-06T01:31:41;15.30;82.50
74657;DHT22;63185;45.642;13.764;2024-01-06T01:34:08;15.20;82.40
74657;DHT22;63185;45.642;13.764;2024-01-06T01:36:33;15.20;82.40
74657;DHT22;63185;45.642;13.764;2024-01-06T01:38:59;15.30;82.40
74657;DHT22;63185;45.642;13.764;2024-01-06T01:41:25;15.20;82.30
74657;DHT22;63185;45.642;13.764;2024-01-06T01:43:50;15.20;82.70
74657;DHT22;63185;45.642;13.764;2024-01-06T01:46:25;15.30;82.40
74657;DHT22;63185;45.642;13.764;2024-01-06T01:48:52;15.40;82.40
74657;DHT22;63185;45.642;13.764;2024-01-06T01:51:19;15.30;82.50
74657;DHT22;63185;45.642;13.764;2024-01-06T01:53:45;15.20;82.60
74657;DHT22;63185;45.642;13.764;2024-01-06T01:56:11;15.30;82.50
74657;DHT22;63185;45.642;13.764;2024-01-06T01:58:37;15.30;82.60
74657;DHT22;63185;45.642;13.764;2024-01-06T02:01:03;15.30;82.40
74657;DHT22;63185;45.642;13.764;2024-01-06T02:03:30;15.30;82.30
74657;DHT22;63185;45.642;13.764;2024-01-06T02:05:56;15.40;82.00
74657;DHT22;63185;45.642;13.764;2024-01-06T02:08:21;15.40;82.30
74657;DHT22;63185;45.642;13.764;2024-01-06T02:10:47;15.30;82.60
74657;DHT22;63185;45.642;13.764;2024-01-06T02:13:13;15.30;82.80
74657;DHT22;63185;45.642;13.764;2024-01-06T02:15:39;15.30;82.90
74657;DHT22;63185;45.642;13.764;2024-01-06T02:18:05;15.30;82.90
74657;DHT22;63185;45.642;13.764;2024-01-06T02:20:31;15.30;83.20
74657;DHT22;63185;45.642;13.764;2024-01-06T02:22:57;15.30;83.30
74657;DHT22;63185;45.642;13.764;2024-01-06T02:25:25;15.30;83.20
74657;DHT22;63185;45.642;13.764;2024-01-06T02:27:50;15.30;83.40
74657;DHT22;63185;45.642;13.764;2024-01-06T02:30:16;15.20;83.50
74657;DHT22;63185;45.642;13.764;2024-01-06T02:32:42;15.20;83.60
74657;DHT22;63185;45.642;13.764;2024-01-06T02:35:07;15.20;83.50
74657;DHT22;63185;45.642;13.764;2024-01-06T02:37:33;15.20;83.60
74657;DHT22;63185;45.642;13.764;2024-01-06T02:39:59;15.20;83.10
74657;DHT22;63185;45.642;13.764;2024-01-06T02:42:24;15.20;83.00
74657;DHT22;63185;45.642;13.764;2024-01-06T02:44:51;15.30;82.80
74657;DHT22;63185;45.642;13.764;2024-01-06T02:47:16;15.20;82.70
74657;DHT22;63185;45.642;13.764;2024-01-06T02:49:42;15.20;82.10
74657;DHT22;63185;45.642;13.764;2024-01-06T02:52:08;15.20;81.80
74657;DHT22;63185;45.642;13.764;2024-01-06T02:54:33;15.20;82.40
74657;DHT22;63185;45.642;13.764;2024-01-06T02:56:59;15.20;82.30
74657;DHT22;63185;45.642;13.764;2024-01-06T02:59:24;15.20;81.90
74657;DHT22;63185;45.642;13.764;2024-01-06T03:01:50;15.10;81.80
74657;DHT22;63185;45.642;13.764;2024-01-06T03:04:16;15.20;81.90
74657;DHT22;63185;45.642;13.764;2024-01-06T03:06:42;15.10;81.60
74657;DHT22;63185;45.642;13.764;2024-01-06T03:09:08;15.10;81.80
74657;DHT22;63185;45.642;13.764;2024-01-06T03:11:33;15.10;81.80
74657;DHT22;63185;45.642;13.764;2024-01-06T03:13:59;15.10;82.20
74657;DHT22;63185;45.642;13.764;2024-01-06T03:16:25;15.10;82.10
74657;DHT22;63185;45.642;13.764;2024-01-06T03:18:50;15.10;82.40
74657;DHT22;63185;45.642;13.764;2024-01-06T03:21:17;15.00;82.40
74657;DHT22;63185;45.642;13.764;2024-01-06T03:23:43;15.00;82.60
74657;DHT22;63185;45.642;13.764;2024-01-06T03:26:09;15.00;82.60
74657;DHT22;63185;45.642;13.764;2024-01-06T03:28:34;15.00;82.90
74657;DHT22;63185;45.642;13.764;2024-01-06T03:31:00;15.00;83.10
74657;DHT22;63185;45.642;13.764;2024-01-06T03:33:26;15.00;83.30
74657;DHT22;63185;45.642;13.764;2024-01-06T03:35:51;14.90;83.50
74657;DHT22;63185;45.642;13.764;2024-01-06T03:38:17;14.90;83.80
74657;DHT22;63185;45.642;13.764;2024-01-06T03:40:42;14.90;83.80
74657;DHT22;63185;45.642;13.764;2024-01-06T03:43:08;14.90;84.00
74657;DHT22;63185;45.642;13.764;2024-01-06T03:45:34;14.80;84.20
74657;DHT22;63185;45.642;13.764;2024-01-06T03:47:59;14.90;84.20
74657;DHT22;63185;45.642;13.764;2024-01-06T03:50:25;14.90;84.30
74657;DHT22;63185;45.642;13.764;2024-01-06T03:52:51;14.80;83.90
74657;DHT22;63185;45.642;13.764;2024-01-06T03:55:16;14.90;83.50
74657;DHT22;63185;45.642;13.764;2024-01-06T03:57:42;14.80;83.50
74657;DHT22;63185;45.642;13.764;2024-01-06T04:00:08;14.90;83.50
74657;DHT22;63185;45.642;13.764;2024-01-06T04:02:34;14.80;83.30
74657;DHT22;63185;45.642;13.764;2024-01-06T04:05:00;14.80;83.50
74657;DHT22;63185;45.642;13.764;2024-01-06T04:07:25;14.90;83.30
74657;DHT22;63185;45.642;13.764;2024-01-06T04:09:51;14.80;83.50
74657;DHT22;63185;45.642;13.764;2024-01-06T04:12:17;14.80;83.40
74657;DHT22;63185;45.642;13.764;2024-01-06T04:14:43;14.80;83.70
74657;DHT22;63185;45.642;13.764;2024-01-06T04:17:08;14.80;83.90
74657;DHT22;63185;45.642;13.764;2024-01-06T04:19:34;14.70;84.00
74657;DHT22;63185;45.642;13.764;2024-01-06T04:22:00;14.70;83.90
74657;DHT22;63185;45.642;13.764;2024-01-06T04:24:25;14.70;83.90
74657;DHT22;63185;45.642;13.764;2024-01-06T04:26:51;14.70;83.90
74657;DHT22;63185;45.642;13.764;2024-01-06T04:29:17;14.70;84.00
74657;DHT22;63185;45.642;13.764;2024-01-06T04:31:42;14.70;83.90
74657;DHT22;63185;45.642;13.764;2024-01-06T04:34:08;14.80;84.00
74657;DHT22;63185;45.642;13.764;2024-01-06T04:36:34;14.80;83.70
74657;DHT22;63185;45.642;13.764;2024-01-06T04:38:59;14.80;83.90
74657;DHT22;63185;45.642;13.764;2024-01-06T04:41:25;14.80;83.80
74657;DHT22;63185;45.642;13.764;2024-01-06T04:43:51;14.70;83.80
74657;DHT22;63185;45.642;13.764;2024-01-06T04:46:16;14.80;83.70
74657;DHT22;63185;45.642;13.764;2024-01-06T04:48:42;14.80;83.60
74657;DHT22;63185;45.642;13.764;2024-01-06T04:51:09;14.80;83.70
74657;DHT22;63185;45.642;13.764;2024-01-06T04:53:39;14.70;83.80
74657;DHT22;63185;45.642;13.764;2024-01-06T04:56:04;14.70;83.80
74657;DHT22;63185;45.642;13.764;2024-01-06T04:58:30;14.70;83.70
74657;DHT22;63185;45.642;13.764;2024-01-06T05:00:56;14.70;83.10
74657;DHT22;63185;45.642;13.764;2024-01-06T05:03:21;14.70;83.30
74657;DHT22;63185;45.642;13.764;2024-01-06T05:05:47;14.60;83.40
74657;DHT22;63185;45.642;13.764;2024-01-06T05:08:13;14.60;83.20
74657;DHT22;63185;45.642;13.764;2024-01-06T05:10:38;14.70;82.90
74657;DHT22;63185;45.642;13.764;2024-01-06T05:13:04;14.70;82.80
74657;DHT22;63185;45.642;13.764;2024-01-06T05:15:30;14.70;83.00
74657;DHT22;63185;45.642;13.764;2024-01-06T05:17:55;14.70;83.00
74657;DHT22;63185;45.642;13.764;2024-01-06T05:20:21;14.70;82.80
74657;DHT22;63185;45.642;13.764;2024-01-06T05:22:47;14.70;83.10
74657;DHT22;63185;45.642;13.764;2024-01-06T05:25:12;14.70;83.20
74657;DHT22;63185;45.642;13.764;2024-01-06T05:27:38;14.70;83.50
74657;DHT22;63185;45.642;13.764;2024-01-06T05:30:04;14.70;83.50
74657;DHT22;63185;45.642;13.764;2024-01-06T05:32:30;14.70;83.60
74657;DHT22;63185;45.642;13.764;2024-01-06T05:34:55;14.70;83.20
74657;DHT22;63185;45.642;13.764;2024-01-06T05:37:21;14.70;83.60
74657;DHT22;63185;45.642;13.764;2024-01-06T05:39:47;14.70;83.60
74657;DHT22;63185;45.642;13.764;2024-01-06T05:42:13;14.70;83.70
74657;DHT22;63185;45.642;13.764;2024-01-06T05:44:40;14.60;83.80
74657;DHT22;63185;45.642;13.764;2024-01-06T05:47:06;14.60;84.00
74657;DHT22;63185;45.642;13.764;2024-01-06T05:49:33;14.60;83.90
74657;DHT22;63185;45.642;13.764;2024-01-06T05:51:59;14.60;84.10
74657;DHT22;63185;45.642;13.764;2024-01-06T05:54:25;14.70;84.10
74657;DHT22;63185;45.642;13.764;2024-01-06T05:56:50;14.70;84.20
74657;DHT22;63185;45.642;13.764;2024-01-06T05:59:17;14.70;84.30
74657;DHT22;63185;45.642;13.764;2024-01-06T06:01:42;14.70;84.30
74657;DHT22;63185;45.642;13.764;2024-01-06T06:04:10;14.70;84.50
74657;DHT22;63185;45.642;13.764;2024-01-06T06:06:35;14.60;84.50
74657;DHT22;63185;45.642;13.764;2024-01-06T06:09:01;14.60;84.70
74657;DHT22;63185;45.642;13.764;2024-01-06T06:11:32;14.60;84.90
74657;DHT22;63185;45.642;13.764;2024-01-06T06:13:58;14.60;85.00
74657;DHT22;63185;45.642;13.764;2024-01-06T06:16:24;14.60;84.90
74657;DHT22;63185;45.642;13.764;2024-01-06T06:18:49;14.70;85.00
74657;DHT22;63185;45.642;13.764;2024-01-06T06:21:15;14.70;85.00
74657;DHT22;63185;45.642;13.764;2024-01-06T06:23:41;14.70;85.10
74657;DHT22;63185;45.642;13.764;2024-01-06T06:26:07;14.70;85.00
74657;DHT22;63185;45.642;13.764;2024-01-06T06:28:33;14.70;85.10
74657;DHT22;63185;45.642;13.764;2024-01-06T06:31:00;14.70;85.30
74657;DHT22;63185;45.642;13.764;2024-01-06T06:33:26;14.70;85.40
74657;DHT22;63185;45.642;13.764;2024-01-06T06:35:51;14.70;85.20
74657;DHT22;63185;45.642;13.764;2024-01-06T06:38:17;14.80;85.20
74657;DHT22;63185;45.642;13.764;2024-01-06T06:40:43;14.80;85.10
74657;DHT22;63185;45.642;13.764;2024-01-06T06:43:08;14.80;85.10
74657;DHT22;63185;45.642;13.764;2024-01-06T06:45:34;14.80;85.30
74657;DHT22;63185;45.642;13.764;2024-01-06T06:48:00;14.80;85.20
74657;DHT22;63185;45.642;13.764;2024-01-06T06:50:26;14.80;85.30
74657;DHT22;63185;45.642;13.764;2024-01-06T06:52:51;14.80;85.00
74657;DHT22;63185;45.642;13.764;2024-01-06T06:55:18;14.70;84.80
74657;DHT22;63185;45.642;13.764;2024-01-06T06:57:43;14.70;84.60
74657;DHT22;63185;45.642;13.764;2024-01-06T07:00:09;14.70;84.50
74657;DHT22;63185;45.642;13.764;2024-01-06T07:02:35;14.80;84.80
74657;DHT22;63185;45.642;13.764;2024-01-06T07:05:01;14.80;84.90
74657;DHT22;63185;45.642;13.764;2024-01-06T07:07:27;14.80;84.70
74657;DHT22;63185;45.642;13.764;2024-01-06T07:09:53;14.80;84.60
74657;DHT22;63185;45.642;13.764;2024-01-06T07:12:19;14.80;84.80
74657;DHT22;63185;45.642;13.764;2024-01-06T07:14:45;14.90;84.90
74657;DHT22;63185;45.642;13.764;2024-01-06T07:17:10;14.90;84.80
74657;DHT22;63185;45.642;13.764;2024-01-06T07:19:36;14.90;84.90
74657;DHT22;63185;45.642;13.764;2024-01-06T07:22:02;14.90;84.60
74657;DHT22;63185;45.642;13.764;2024-01-06T07:24:28;14.90;84.60
74657;DHT22;63185;45.642;13.764;2024-01-06T07:26:53;14.90;84.60
74657;DHT22;63185;45.642;13.764;2024-01-06T07:29:19;14.90;84.50
74657;DHT22;63185;45.642;13.764;2024-01-06T07:31:45;14.90;84.50
74657;DHT22;63185;45.642;13.764;2024-01-06T07:34:10;14.90;84.60
74657;DHT22;63185;45.642;13.764;2024-01-06T07:36:36;14.90;84.50
74657;DHT22;63185;45.642;13.764;2024-01-06T07:39:03;15.00;84.60
74657;DHT22;63185;45.642;13.764;2024-01-06T07:41:31;15.00;84.40
74657;DHT22;63185;45.642;13.764;2024-01-06T07:43:57;15.00;84.10
74657;DHT22;63185;45.642;13.764;2024-01-06T07:46:23;15.00;83.80
74657;DHT22;63185;45.642;13.764;2024-01-06T07:48:49;15.00;83.80
74657;DHT22;63185;45.642;13.764;2024-01-06T07:51:15;15.00;83.90
74657;DHT22;63185;45.642;13.764;2024-01-06T07:53:41;15.00;83.80
74657;DHT22;63185;45.642;13.764;2024-01-06T07:56:07;15.10;83.90
74657;DHT22;63185;45.642;13.764;2024-01-06T07:58:33;15.10;83.70
74657;DHT22;63185;45.642;13.764;2024-01-06T08:00:59;15.10;83.70
74657;DHT22;63185;45.642;13.764;2024-01-06T08:03:25;15.10;83.50
74657;DHT22;63185;45.642;13.764;2024-01-06T08:05:50;15.10;83.60
74657;DHT22;63185;45.642;13.764;2024-01-06T08:08:16;15.10;83.60
74657;DHT22;63185;45.642;13.764;2024-01-06T08:10:42;15.10;83.60
74657;DHT22;63185;45.642;13.764;2024-01-06T08:13:08;15.10;83.70
74657;DHT22;63185;45.642;13.764;2024-01-06T08:15:34;15.10;83.90
74657;DHT22;63185;45.642;13.764;2024-01-06T08:17:59;15.00;84.20
74657;DHT22;63185;45.642;13.764;2024-01-06T08:20:25;15.10;84.00
74657;DHT22;63185;45.642;13.764;2024-01-06T08:22:51;15.10;84.10
74657;DHT22;63185;45.642;13.764;2024-01-06T08:25:17;15.00;84.00
74657;DHT22;63185;45.642;13.764;2024-01-06T08:27:43;15.10;83.90
74657;DHT22;63185;45.642;13.764;2024-01-06T08:30:09;15.10;83.90
74657;DHT22;63185;45.642;13.764;2024-01-06T08:32:35;15.10;84.10
74657;DHT22;63185;45.642;13.764;2024-01-06T08:35:01;15.10;84.10
74657;DHT22;63185;45.642;13.764;2024-01-06T08:37:26;15.10;84.00
74657;DHT22;63185;45.642;13.764;2024-01-06T08:39:52;15.10;84.00
74657;DHT22;63185;45.642;13.764;2024-01-06T08:42:18;15.10;83.90
74657;DHT22;63185;45.642;13.764;2024-01-06T08:44:44;15.20;83.80
74657;DHT22;63185;45.642;13.764;2024-01-06T08:47:10;15.10;83.90
74657;DHT22;63185;45.642;13.764;2024-01-06T08:49:35;15.10;83.90
74657;DHT22;63185;45.642;13.764;2024-01-06T08:52:01;15.20;83.50
74657;DHT22;63185;45.642;13.764;2024-01-06T08:54:27;15.20;83.30
74657;DHT22;63185;45.642;13.764;2024-01-06T08:56:52;15.10;83.20
74657;DHT22;63185;45.642;13.764;2024-01-06T08:59:18;15.20;83.10
74657;DHT22;63185;45.642;13.764;2024-01-06T09:01:45;15.20;83.10
74657;DHT22;63185;45.642;13.764;2024-01-06T09:04:11;15.20;83.30
74657;DHT22;63185;45.642;13.764;2024-01-06T09:06:38;15.20;83.30
74657;DHT22;63185;45.642;13.764;2024-01-06T09:09:04;15.20;83.20
74657;DHT22;63185;45.642;13.764;2024-01-06T09:11:30;15.20;83.20
74657;DHT22;63185;45.642;13.764;2024-01-06T09:13:56;15.20;83.20
74657;DHT22;63185;45.642;13.764;2024-01-06T09:16:21;15.20;83.30
74657;DHT22;63185;45.642;13.764;2024-01-06T09:18:48;15.20;83.20
74657;DHT22;63185;45.642;13.764;2024-01-06T09:21:14;15.30;83.10
74657;DHT22;63185;45.642;13.764;2024-01-06T09:23:40;15.30;83.40
74657;DHT22;63185;45.642;13.764;2024-01-06T09:26:06;15.20;83.60
74657;DHT22;63185;45.642;13.764;2024-01-06T09:28:32;15.20;83.70
74657;DHT22;63185;45.642;13.764;2024-01-06T09:30:58;15.20;84.10
74657;DHT22;63185;45.642;13.764;2024-01-06T09:33:23;15.20;83.90
74657;DHT22;63185;45.642;13.764;2024-01-06T09:35:49;15.20;83.80
74657;DHT22;63185;45.642;13.764;2024-01-06T09:38:15;15.30;83.70
74657;DHT22;63185;45.642;13.764;2024-01-06T09:40:44;15.30;83.90
74657;DHT22;63185;45.642;13.764;2024-01-06T09:43:10;15.30;83.80
74657;DHT22;63185;45.642;13.764;2024-01-06T09:45:37;15.30;83.80
74657;DHT22;63185;45.642;13.764;2024-01-06T09:48:13;15.30;83.70
74657;DHT22;63185;45.642;13.764;2024-01-06T09:50:43;15.40;83.70
74657;DHT22;63185;45.642;13.764;2024-01-06T09:53:11;15.40;83.70
74657;DHT22;63185;45.642;13.764;2024-01-06T09:55:37;15.50;83.80
74657;DHT22;63185;45.642;13.764;2024-01-06T09:58:04;15.50;83.70
74657;DHT22;63185;45.642;13.764;2024-01-06T10:00:31;15.60;83.70
74657;DHT22;63185;45.642;13.764;2024-01-06T10:02:57;15.50;83.70
74657;DHT22;63185;45.642;13.764;2024-01-06T10:05:23;15.50;83.70
74657;DHT22;63185;45.642;13.764;2024-01-06T10:07:49;15.50;83.80
74657;DHT22;63185;45.642;13.764;2024-01-06T10:10:15;15.50;83.90
74657;DHT22;63185;45.642;13.764;2024-01-06T10:12:42;15.50;83.70
74657;DHT22;63185;45.642;13.764;2024-01-06T10:15:09;15.60;83.60
74657;DHT22;63185;45.642;13.764;2024-01-06T10:17:41;15.50;83.50
74657;DHT22;63185;45.642;13.764;2024-01-06T10:20:11;15.60;83.50
74657;DHT22;63185;45.642;13.764;2024-01-06T10:22:38;15.50;83.60
74657;DHT22;63185;45.642;13.764;2024-01-06T10:25:06;15.60;83.40
74657;DHT22;63185;45.642;13.764;2024-01-06T10:27:36;15.60;83.40
74657;DHT22;63185;45.642;13.764;2024-01-06T10:30:02;15.60;83.40
74657;DHT22;63185;45.642;13.764;2024-01-06T10:32:31;15.60;83.50
74657;DHT22;63185;45.642;13.764;2024-01-06T10:34:57;15.60;83.60
74657;DHT22;63185;45.642;13.764;2024-01-06T10:37:24;15.60;83.90
74657;DHT22;63185;45.642;13.764;2024-01-06T10:40:11;15.60;83.90
74657;DHT22;63185;45.642;13.764;2024-01-06T10:42:38;15.60;83.60
74657;DHT22;63185;45.642;13.764;2024-01-06T10:45:07;15.60;83.60
74657;DHT22;63185;45.642;13.764;2024-01-06T10:47:35;15.70;83.30
74657;DHT22;63185;45.642;13.764;2024-01-06T10:50:01;15.70;83.30
74657;DHT22;63185;45.642;13.764;2024-01-06T10:52:27;15.70;83.20
74657;DHT22;63185;45.642;13.764;2024-01-06T10:54:57;15.80;83.00
74657;DHT22;63185;45.642;13.764;2024-01-06T10:57:22;15.80;83.00
74657;DHT22;63185;45.642;13.764;2024-01-06T10:59:52;15.80;82.80
74657;DHT22;63185;45.642;13.764;2024-01-06T11:02:19;15.90;82.60
74657;DHT22;63185;45.642;13.764;2024-01-06T11:04:48;15.90;82.60
74657;DHT22;63185;45.642;13.764;2024-01-06T11:07:17;15.90;82.60
74657;DHT22;63185;45.642;13.764;2024-01-06T11:12:18;16.00;82.70
74657;DHT22;63185;45.642;13.764;2024-01-06T11:14:44;16.00;82.90
74657;DHT22;63185;45.642;13.764;2024-01-06T11:17:11;16.00;83.10
74657;DHT22;63185;45.642;13.764;2024-01-06T11:22:19;16.00;83.30
74657;DHT22;63185;45.642;13.764;2024-01-06T11:24:49;16.00;83.40
74657;DHT22;63185;45.642;13.764;2024-01-06T11:27:18;16.00;83.20
74657;DHT22;63185;45.642;13.764;2024-01-06T11:29:44;16.00;83.30
74657;DHT22;63185;45.642;13.764;2024-01-06T11:32:39;16.00;83.50
74657;DHT22;63185;45.642;13.764;2024-01-06T11:35:11;16.00;83.60
74657;DHT22;63185;45.642;13.764;2024-01-06T11:42:35;16.00;83.50
74657;DHT22;63185;45.642;13.764;2024-01-06T11:45:05;16.00;83.50
74657;DHT22;63185;45.642;13.764;2024-01-06T11:47:32;16.00;83.40
74657;DHT22;63185;45.642;13.764;2024-01-06T11:49:59;16.00;83.60
74657;DHT22;63185;45.642;13.764;2024-01-06T11:52:26;16.00;83.70
74657;DHT22;63185;45.642;13.764;2024-01-06T11:54:55;16.00;83.80
74657;DHT22;63185;45.642;13.764;2024-01-06T11:57:21;16.00;84.00
74657;DHT22;63185;45.642;13.764;2024-01-06T11:59:48;16.00;83.80
74657;DHT22;63185;45.642;13.764;2024-01-06T12:02:18;16.00;83.90
74657;DHT22;63185;45.642;13.764;2024-01-06T12:04:51;16.00;83.70
74657;DHT22;63185;45.642;13.764;2024-01-06T12:07:18;16.00;83.90
74657;DHT22;63185;45.642;13.764;2024-01-06T12:09:46;16.00;83.90
74657;DHT22;63185;45.642;13.764;2024-01-06T12:12:16;16.00;84.00
74657;DHT22;63185;45.642;13.764;2024-01-06T12:14:41;16.00;84.00
74657;DHT22;63185;45.642;13.764;2024-01-06T12:17:08;15.90;83.90
74657;DHT22;63185;45.642;13.764;2024-01-06T12:19:34;15.90;83.80
74657;DHT22;63185;45.642;13.764;2024-01-06T12:22:01;15.80;84.00
74657;DHT22;63185;45.642;13.764;2024-01-06T12:24:28;15.80;83.90
74657;DHT22;63185;45.642;13.764;2024-01-06T12:26:56;15.80;83.50
74657;DHT22;63185;45.642;13.764;2024-01-06T12:29:22;15.80;83.60
74657;DHT22;63185;45.642;13.764;2024-01-06T12:31:48;15.80;83.60
74657;DHT22;63185;45.642;13.764;2024-01-06T12:34:13;15.80;83.40
74657;DHT22;63185;45.642;13.764;2024-01-06T12:36:40;15.80;83.50
74657;DHT22;63185;45.642;13.764;2024-01-06T12:39:10;15.80;83.40
74657;DHT22;63185;45.642;13.764;2024-01-06T12:41:41;15.80;83.60
74657;DHT22;63185;45.642;13.764;2024-01-06T12:44:08;15.70;83.60
74657;DHT22;63185;45.642;13.764;2024-01-06T12:46:34;15.80;83.60
74657;DHT22;63185;45.642;13.764;2024-01-06T12:49:00;15.70;83.50
74657;DHT22;63185;45.642;13.764;2024-01-06T12:51:25;15.80;83.60
74657;DHT22;63185;45.642;13.764;2024-01-06T12:53:51;15.70;83.60
74657;DHT22;63185;45.642;13.764;2024-01-06T12:56:17;15.70;83.50
74657;DHT22;63185;45.642;13.764;2024-01-06T12:58:43;15.70;83.60
74657;DHT22;63185;45.642;13.764;2024-01-06T13:01:09;15.70;83.60
74657;DHT22;63185;45.642;13.764;2024-01-06T13:03:35;15.70;83.70
74657;DHT22;63185;45.642;13.764;2024-01-06T13:06:02;15.70;83.60
74657;DHT22;63185;45.642;13.764;2024-01-06T13:08:28;15.80;83.50
74657;DHT22;63185;45.642;13.764;2024-01-06T13:10:55;15.80;83.40
74657;DHT22;63185;45.642;13.764;2024-01-06T13:13:21;15.80;83.30
74657;DHT22;63185;45.642;13.764;2024-01-06T13:15:47;15.90;83.40
74657;DHT22;63185;45.642;13.764;2024-01-06T13:18:12;15.90;83.40
74657;DHT22;63185;45.642;13.764;2024-01-06T13:20:39;15.80;83.60
74657;DHT22;63185;45.642;13.764;2024-01-06T13:23:07;15.80;83.90
74657;DHT22;63185;45.642;13.764;2024-01-06T13:25:34;15.80;84.00
74657;DHT22;63185;45.642;13.764;2024-01-06T13:28:00;15.70;83.90
74657;DHT22;63185;45.642;13.764;2024-01-06T13:30:25;15.80;83.80
74657;DHT22;63185;45.642;13.764;2024-01-06T13:32:54;15.80;83.90
74657;DHT22;63185;45.642;13.764;2024-01-06T13:35:20;15.80;83.90
74657;DHT22;63185;45.642;13.764;2024-01-06T13:37:47;15.80;83.80
74657;DHT22;63185;45.642;13.764;2024-01-06T13:40:17;15.80;83.60
74657;DHT22;63185;45.642;13.764;2024-01-06T13:42:46;15.80;83.70
74657;DHT22;63185;45.642;13.764;2024-01-06T13:45:12;15.80;84.00
74657;DHT22;63185;45.642;13.764;2024-01-06T13:47:39;15.70;83.80
74657;DHT22;63185;45.642;13.764;2024-01-06T13:50:08;15.70;83.70
74657;DHT22;63185;45.642;13.764;2024-01-06T13:52:34;15.70;83.90
74657;DHT22;63185;45.642;13.764;2024-01-06T13:55:01;15.80;83.90
74657;DHT22;63185;45.642;13.764;2024-01-06T13:57:26;15.80;83.60
74657;DHT22;63185;45.642;13.764;2024-01-06T13:59:52;15.80;83.70
74657;DHT22;63185;45.642;13.764;2024-01-06T14:02:18;15.80;83.30
74657;DHT22;63185;45.642;13.764;2024-01-06T14:04:44;15.70;83.50
74657;DHT22;63185;45.642;13.764;2024-01-06T14:07:09;15.70;83.50
74657;DHT22;63185;45.642;13.764;2024-01-06T14:09:36;15.70;83.50
74657;DHT22;63185;45.642;13.764;2024-01-06T14:12:02;15.70;83.40
74657;DHT22;63185;45.642;13.764;2024-01-06T14:14:31;15.70;83.40
74657;DHT22;63185;45.642;13.764;2024-01-06T14:16:57;15.70;83.40
74657;DHT22;63185;45.642;13.764;2024-01-06T14:19:24;15.70;83.50
74657;DHT22;63185;45.642;13.764;2024-01-06T14:21:49;15.70;83.50
74657;DHT22;63185;45.642;13.764;2024-01-06T14:24:16;15.60;83.20
74657;DHT22;63185;45.642;13.764;2024-01-06T14:26:49;15.60;83.10
74657;DHT22;63185;45.642;13.764;2024-01-06T14:29:15;15.60;83.20
74657;DHT22;63185;45.642;13.764;2024-01-06T14:31:42;15.60;83.00
74657;DHT22;63185;45.642;13.764;2024-01-06T14:34:08;15.60;82.50
74657;DHT22;63185;45.642;13.764;2024-01-06T14:36:36;15.60;82.60
74657;DHT22;63185;45.642;13.764;2024-01-06T14:39:02;15.50;82.60
74657;DHT22;63185;45.642;13.764;2024-01-06T14:41:31;15.40;82.30
74657;DHT22;63185;45.642;13.764;2024-01-06T14:43:57;15.40;82.60
74657;DHT22;63185;45.642;13.764;2024-01-06T14:46:25;15.30;82.60
74657;DHT22;63185;45.642;13.764;2024-01-06T14:48:50;15.30;82.80
74657;DHT22;63185;45.642;13.764;2024-01-06T14:51:17;15.30;82.70
74657;DHT22;63185;45.642;13.764;2024-01-06T14:53:43;15.20;82.50
74657;DHT22;63185;45.642;13.764;2024-01-06T14:56:09;15.20;82.60
74657;DHT22;63185;45.642;13.764;2024-01-06T14:58:34;15.20;82.50
74657;DHT22;63185;45.642;13.764;2024-01-06T15:01:00;15.20;82.40
74657;DHT22;63185;45.642;13.764;2024-01-06T15:03:26;15.20;82.70
74657;DHT22;63185;45.642;13.764;2024-01-06T15:05:51;15.20;82.70
74657;DHT22;63185;45.642;13.764;2024-01-06T15:08:17;15.10;82.60
74657;DHT22;63185;45.642;13.764;2024-01-06T15:10:43;15.10;82.90
74657;DHT22;63185;45.642;13.764;2024-01-06T15:13:08;15.00;83.10
74657;DHT22;63185;45.642;13.764;2024-01-06T15:15:35;15.00;83.00
74657;DHT22;63185;45.642;13.764;2024-01-06T15:18:00;15.10;82.80
74657;DHT22;63185;45.642;13.764;2024-01-06T15:20:26;15.00;82.80